createdAt,value
2022-09-30T00:01:11.522Z,84.66
2022-09-30T00:03:37.901Z,84.68
2022-09-30T00:06:08.622Z,84.57
2022-09-30T00:08:39.360Z,85.09
2022-09-30T00:11:16.275Z,84.67
2022-09-30T00:13:44.280Z,84.80
2022-09-30T00:16:12.491Z,84.72
2022-09-30T00:18:39.975Z,84.87
2022-09-30T00:21:08.197Z,84.54
2022-09-30T00:23:37.801Z,84.94
2022-09-30T00:26:07.210Z,84.81
2022-09-30T00:28:34.185Z,84.82
2022-09-30T00:31:02.270Z,84.66
2022-09-30T00:33:28.985Z,84.69
2022-09-30T00:35:55.342Z,84.43
2022-09-30T00:38:21.730Z,84.75
2022-09-30T00:40:49.157Z,84.93
2022-09-30T00:43:20.575Z,84.45
2022-09-30T00:45:55.594Z,84.87
2022-09-30T00:48:33.596Z,84.67
2022-09-30T00:51:02.578Z,84.86
2022-09-30T00:53:34.364Z,84.57
2022-09-30T00:56:13.951Z,84.30
2022-09-30T00:58:50.627Z,84.26
2022-09-30T01:01:18.046Z,84.01
2022-09-30T01:03:50.147Z,84.02
2022-09-30T01:06:17.554Z,84.68
2022-09-30T01:08:45.357Z,84.50
2022-09-30T01:11:12.170Z,84.54
2022-09-30T01:13:40.593Z,84.80
2022-09-30T01:16:32.122Z,84.75
2022-09-30T01:19:20.163Z,84.64
2022-09-30T01:21:52.587Z,84.79
2022-09-30T01:24:40.303Z,84.67
2022-09-30T01:27:31.710Z,84.95
2022-09-30T01:30:04.267Z,85.44
2022-09-30T01:32:33.576Z,85.79
2022-09-30T01:35:07.427Z,85.51
2022-09-30T01:37:55.996Z,85.58
2022-09-30T01:40:32.748Z,85.56
2022-09-30T01:43:17.995Z,85.35
2022-09-30T01:45:51.176Z,85.71
2022-09-30T01:48:28.890Z,85.32
2022-09-30T01:51:09.929Z,85.83
2022-09-30T01:54:04.176Z,85.46
2022-09-30T01:56:53.871Z,85.70
2022-09-30T01:59:49.265Z,85.84
2022-09-30T02:02:23.074Z,85.96
2022-09-30T02:05:05.833Z,85.71
2022-09-30T02:07:58.594Z,85.96
2022-09-30T02:10:30.772Z,85.18
2022-09-30T02:13:05.133Z,85.09
2022-09-30T02:15:40.259Z,85.18
2022-09-30T02:18:31.729Z,85.48
2022-09-30T02:21:02.777Z,85.38
2022-09-30T02:23:33.641Z,85.35
2022-09-30T02:26:07.120Z,85.49
2022-09-30T02:28:39.385Z,85.82
2022-09-30T02:31:08.479Z,85.93
2022-09-30T02:33:54.869Z,85.77
2022-09-30T02:36:28.885Z,86.23
2022-09-30T02:39:10.499Z,85.96
2022-09-30T02:41:46.787Z,85.91
2022-09-30T02:44:14.813Z,86.04
2022-09-30T02:47:04.009Z,86.21
2022-09-30T02:49:47.293Z,85.76
2022-09-30T02:52:25.992Z,86.01
2022-09-30T02:55:13.727Z,86.04
2022-09-30T02:57:49.401Z,85.61
2022-09-30T03:00:16.280Z,85.68
2022-09-30T03:02:42.670Z,85.86
2022-09-30T03:05:10.121Z,85.34
2022-09-30T03:07:37.254Z,85.88
2022-09-30T03:10:16.374Z,85.74
2022-09-30T03:13:26.385Z,85.98
2022-09-30T03:16:11.914Z,86.43
2022-09-30T03:19:06.391Z,86.18
2022-09-30T03:21:39.276Z,85.77
2022-09-30T03:24:17.798Z,86.02
2022-09-30T03:27:08.925Z,86.21
2022-09-30T03:29:48.934Z,86.43
2022-09-30T03:32:27.957Z,86.30
2022-09-30T03:35:12.723Z,86.41
2022-09-30T03:37:51.073Z,86.77
2022-09-30T03:40:41.109Z,86.39
2022-09-30T03:43:46.529Z,86.54
2022-09-30T03:46:36.216Z,86.88
2022-09-30T03:49:06.908Z,86.73
2022-09-30T03:51:37.918Z,86.60
2022-09-30T03:54:11.213Z,86.96
2022-09-30T03:56:42.958Z,86.98
2022-09-30T03:59:12.263Z,87.14
2022-09-30T04:01:39.751Z,86.85
2022-09-30T04:04:06.161Z,86.70
2022-09-30T04:06:32.498Z,86.81
2022-09-30T04:08:58.959Z,86.84
2022-09-30T04:11:25.434Z,86.35
2022-09-30T04:13:51.847Z,86.50
2022-09-30T04:16:18.997Z,86.49
2022-09-30T04:18:45.379Z,86.52
2022-09-30T04:21:14.675Z,86.77
2022-09-30T04:23:42.551Z,86.72
2022-09-30T04:26:13.583Z,86.59
2022-09-30T04:28:40.005Z,86.59
2022-09-30T04:31:06.725Z,86.68
2022-09-30T04:33:33.557Z,86.73
2022-09-30T04:36:01.033Z,86.58
2022-09-30T04:38:27.680Z,86.59
2022-09-30T04:40:54.769Z,86.86
2022-09-30T04:43:25.026Z,86.46
2022-09-30T04:45:52.785Z,86.86
2022-09-30T04:48:19.740Z,86.82
2022-09-30T04:50:46.106Z,86.80
2022-09-30T04:53:14.591Z,86.69
2022-09-30T04:55:42.029Z,87.32
2022-09-30T04:58:08.789Z,87.19
2022-09-30T05:00:35.506Z,86.96
2022-09-30T05:03:03.153Z,87.09
2022-09-30T05:05:30.258Z,87.24
2022-09-30T05:08:01.138Z,87.03
2022-09-30T05:10:27.840Z,87.37
2022-09-30T05:12:54.279Z,87.34
2022-09-30T05:15:20.626Z,87.66
2022-09-30T05:17:49.323Z,87.52
2022-09-30T05:20:20.828Z,87.46
2022-09-30T05:22:47.597Z,87.36
2022-09-30T05:25:13.950Z,87.24
2022-09-30T05:27:40.271Z,87.02
2022-09-30T05:30:07.115Z,87.04
2022-09-30T05:32:33.649Z,87.01
2022-09-30T05:35:01.259Z,86.79
2022-09-30T05:37:27.621Z,86.85
2022-09-30T05:39:54.946Z,86.98
2022-09-30T05:42:21.289Z,86.68
2022-09-30T05:44:47.628Z,86.84
2022-09-30T05:47:13.976Z,87.23
2022-09-30T05:49:41.710Z,87.11
2022-09-30T05:52:08.160Z,86.89
2022-09-30T05:54:34.522Z,87.08
2022-09-30T05:57:00.989Z,87.00
2022-09-30T05:59:27.392Z,86.79
2022-09-30T06:01:53.912Z,87.08
2022-09-30T06:04:21.581Z,87.13
2022-09-30T06:06:49.077Z,86.89
2022-09-30T06:09:16.715Z,86.98
2022-09-30T06:11:43.118Z,86.89
2022-09-30T06:14:09.451Z,86.66
2022-09-30T06:16:36.197Z,86.90
2022-09-30T06:19:02.590Z,86.93
2022-09-30T06:21:29.114Z,86.81
2022-09-30T06:23:55.443Z,86.80
2022-09-30T06:26:21.850Z,86.75
2022-09-30T06:28:48.337Z,86.87
2022-09-30T06:31:14.770Z,87.06
2022-09-30T06:33:42.470Z,87.09
2022-09-30T06:36:08.809Z,87.29
2022-09-30T06:38:39.940Z,87.13
2022-09-30T06:41:06.458Z,87.62
2022-09-30T06:43:39.676Z,87.38
2022-09-30T06:46:17.725Z,86.97
2022-09-30T06:48:48.402Z,86.96
2022-09-30T06:51:14.818Z,87.13
2022-09-30T06:53:41.653Z,87.30
2022-09-30T06:56:08.133Z,87.23
2022-09-30T06:58:34.558Z,87.26
2022-09-30T07:01:04.325Z,87.40
2022-09-30T07:03:33.765Z,87.15
2022-09-30T07:06:03.690Z,87.32
2022-09-30T07:08:32.113Z,87.13
2022-09-30T07:10:59.411Z,87.47
2022-09-30T07:13:26.498Z,87.42
2022-09-30T07:15:54.725Z,87.25
2022-09-30T07:18:21.800Z,87.94
2022-09-30T07:20:52.831Z,87.29
2022-09-30T07:23:24.408Z,87.13
2022-09-30T07:25:56.732Z,87.27
2022-09-30T07:28:27.922Z,87.26
2022-09-30T07:31:13.494Z,86.92
2022-09-30T07:33:43.211Z,86.32
2022-09-30T07:36:10.982Z,86.79
2022-09-30T07:38:40.505Z,86.30
2022-09-30T07:41:10.658Z,86.24
2022-09-30T07:43:38.653Z,85.78
2022-09-30T07:46:15.106Z,84.60
2022-09-30T07:48:43.859Z,84.68
2022-09-30T07:51:13.239Z,85.04
2022-09-30T07:53:41.046Z,84.68
2022-09-30T07:56:08.500Z,84.67
2022-09-30T07:58:35.422Z,84.75
2022-09-30T08:01:02.946Z,84.43
2022-09-30T08:03:29.390Z,84.19
2022-09-30T08:05:55.779Z,83.58
2022-09-30T08:08:22.203Z,83.31
2022-09-30T08:10:48.547Z,82.77
2022-09-30T08:13:16.570Z,82.88
2022-09-30T08:15:43.182Z,82.63
2022-09-30T08:18:09.813Z,82.76
2022-09-30T08:20:36.257Z,82.52
2022-09-30T08:23:02.599Z,82.58
2022-09-30T08:25:29.010Z,82.50
2022-09-30T08:27:55.566Z,81.58
2022-09-30T08:30:22.067Z,80.76
2022-09-30T08:32:48.408Z,80.69
2022-09-30T08:35:14.806Z,79.37
2022-09-30T08:37:41.228Z,79.26
2022-09-30T08:40:18.094Z,77.80
2022-09-30T08:43:02.817Z,77.06
2022-09-30T08:45:37.318Z,75.23
2022-09-30T08:48:19.280Z,74.84
2022-09-30T08:50:48.363Z,74.42
2022-09-30T08:53:30.164Z,71.06
2022-09-30T08:56:02.324Z,71.47
2022-09-30T08:58:31.767Z,71.13
2022-09-30T09:01:05.285Z,71.79
2022-09-30T09:03:34.098Z,69.12
2022-09-30T09:06:10.079Z,68.93
2022-09-30T09:08:55.655Z,65.81
2022-09-30T09:11:42.717Z,67.21
2022-09-30T09:14:26.159Z,65.06
2022-09-30T09:17:15.452Z,64.47
2022-09-30T09:19:50.207Z,62.29
2022-09-30T09:22:20.112Z,64.00
2022-09-30T09:24:51.671Z,60.78
2022-09-30T09:27:21.674Z,58.81
2022-09-30T09:30:05.020Z,56.43
2022-09-30T09:32:31.366Z,56.10
2022-09-30T09:35:01.777Z,55.49
2022-09-30T09:38:13.791Z,54.25
2022-09-30T09:41:06.363Z,51.80
2022-09-30T09:43:49.513Z,51.79
2022-09-30T09:46:21.026Z,49.19
2022-09-30T09:48:47.374Z,50.10
2022-09-30T09:51:28.647Z,46.94
2022-09-30T09:54:00.196Z,50.36
2022-09-30T09:56:32.334Z,48.07
2022-09-30T09:59:06.184Z,45.74
2022-09-30T10:01:34.870Z,44.87
2022-09-30T10:04:12.385Z,42.74
2022-09-30T10:07:01.464Z,48.21
2022-09-30T10:09:29.973Z,43.93
2022-09-30T10:12:26.294Z,42.02
2022-09-30T10:15:18.706Z,44.49
2022-09-30T10:17:54.898Z,42.16
2022-09-30T10:20:36.930Z,41.46
2022-09-30T10:23:19.802Z,40.56
2022-09-30T10:26:15.420Z,39.98
2022-09-30T10:28:51.861Z,41.50
2022-09-30T10:31:27.031Z,39.69
2022-09-30T10:34:04.287Z,38.22
2022-09-30T10:36:36.531Z,38.23
2022-09-30T10:39:07.516Z,36.49
2022-09-30T10:41:36.889Z,37.59
2022-09-30T10:44:18.141Z,36.13
2022-09-30T10:46:47.118Z,36.30
2022-09-30T10:49:42.083Z,36.76
2022-09-30T10:52:27.761Z,37.78
2022-09-30T10:54:56.842Z,36.76
2022-09-30T10:57:26.899Z,36.30
2022-09-30T11:00:00.620Z,37.03
2022-09-30T11:02:43.597Z,36.39
2022-09-30T11:05:24.354Z,36.03
2022-09-30T11:08:01.094Z,35.88
2022-09-30T11:10:38.447Z,35.36
2022-09-30T11:13:20.259Z,37.77
2022-09-30T11:16:34.315Z,35.69
2022-09-30T11:19:17.564Z,37.27
2022-09-30T11:21:52.994Z,36.22
2022-09-30T11:24:34.013Z,36.15
2022-09-30T11:27:16.336Z,36.83
2022-09-30T11:29:48.682Z,35.62
2022-09-30T11:32:36.946Z,37.20
2022-09-30T11:35:37.158Z,38.05
2022-09-30T11:38:33.162Z,35.34
2022-09-30T11:41:24.203Z,35.10
2022-09-30T11:44:16.530Z,36.72
2022-09-30T11:47:21.770Z,36.60
2022-09-30T11:50:17.353Z,35.54
2022-09-30T11:53:25.750Z,35.66
2022-09-30T11:56:04.433Z,36.11
2022-09-30T11:58:42.000Z,35.68
2022-09-30T12:01:08.726Z,35.98
2022-09-30T12:03:55.906Z,40.27
2022-09-30T12:06:36.345Z,39.16
2022-09-30T12:09:16.679Z,41.14
2022-09-30T12:11:53.207Z,36.51
2022-09-30T12:14:27.462Z,36.87
2022-09-30T12:16:56.639Z,37.14
2022-09-30T12:19:36.198Z,38.57
2022-09-30T12:22:14.194Z,36.41
2022-09-30T12:24:44.410Z,37.43
2022-09-30T12:27:26.625Z,38.30
2022-09-30T12:30:20.328Z,40.21
2022-09-30T12:33:15.367Z,39.15
2022-09-30T12:35:52.611Z,38.27
2022-09-30T12:38:58.159Z,40.82
2022-09-30T12:41:51.308Z,37.46
2022-09-30T12:44:41.832Z,37.24
2022-09-30T12:47:36.310Z,38.08
2022-09-30T12:50:08.136Z,37.64
2022-09-30T12:52:36.891Z,38.53
2022-09-30T12:55:12.599Z,39.15
2022-09-30T12:57:43.089Z,37.46
2022-09-30T13:00:22.358Z,38.89
2022-09-30T13:02:55.474Z,41.08
2022-09-30T13:05:27.592Z,40.43
2022-09-30T13:08:24.884Z,37.09
2022-09-30T13:11:00.341Z,38.92
2022-09-30T13:13:31.703Z,38.27
2022-09-30T13:16:06.336Z,37.77
2022-09-30T13:18:32.683Z,37.49
2022-09-30T13:21:04.708Z,39.39
2022-09-30T13:23:45.718Z,38.60
2022-09-30T13:26:27.632Z,39.91
2022-09-30T13:29:00.339Z,41.12
2022-09-30T13:31:28.457Z,39.89
2022-09-30T13:34:10.294Z,38.32
2022-09-30T13:36:56.659Z,37.76
2022-09-30T13:39:23.021Z,36.58
2022-09-30T13:42:21.521Z,39.84
2022-09-30T13:45:18.424Z,39.68
2022-09-30T13:47:48.029Z,38.04
2022-09-30T13:50:29.404Z,38.07
2022-09-30T13:53:00.941Z,37.67
2022-09-30T13:55:42.256Z,37.54
2022-09-30T13:58:43.232Z,38.08
2022-09-30T14:01:35.999Z,41.62
2022-09-30T14:04:41.949Z,41.17
2022-09-30T14:07:40.921Z,38.75
2022-09-30T14:10:13.815Z,41.22
2022-09-30T14:12:49.334Z,42.69
2022-09-30T14:15:40.590Z,39.60
2022-09-30T14:18:28.470Z,41.55
2022-09-30T14:21:31.943Z,42.78
2022-09-30T14:24:09.389Z,43.64
2022-09-30T14:26:56.245Z,43.81
2022-09-30T14:30:08.100Z,41.74
2022-09-30T14:32:46.111Z,41.69
2022-09-30T14:38:07.726Z,41.38
2022-09-30T14:40:40.569Z,41.29
2022-09-30T14:43:13.180Z,39.53
2022-09-30T14:45:45.462Z,40.50
2022-09-30T14:48:20.599Z,38.58
2022-09-30T14:50:54.138Z,41.38
2022-09-30T14:53:32.543Z,41.35
2022-09-30T14:55:59.976Z,38.92
2022-09-30T14:58:31.619Z,37.64
2022-09-30T15:01:06.595Z,38.74
2022-09-30T15:03:36.779Z,38.23
2022-09-30T15:06:04.129Z,41.38
2022-09-30T15:08:30.548Z,44.32
2022-09-30T15:10:57.159Z,45.46
2022-09-30T15:13:31.875Z,42.55
2022-09-30T15:15:59.105Z,40.53
2022-09-30T15:18:26.336Z,38.07
2022-09-30T15:20:55.179Z,39.12
2022-09-30T15:23:27.011Z,39.03
2022-09-30T15:25:54.497Z,38.56
2022-09-30T15:28:21.298Z,39.22
2022-09-30T15:30:47.805Z,41.64
2022-09-30T15:33:18.204Z,40.48
2022-09-30T15:35:45.313Z,45.26
2022-09-30T15:38:27.650Z,46.38
2022-09-30T15:41:00.275Z,41.95
2022-09-30T15:43:42.297Z,41.93
2022-09-30T15:46:18.067Z,43.24
2022-09-30T15:48:45.079Z,41.99
2022-09-30T15:51:36.245Z,42.72
2022-09-30T15:54:31.784Z,46.23
2022-09-30T15:57:04.390Z,44.94
2022-09-30T16:00:07.923Z,48.03
2022-09-30T16:02:35.393Z,44.69
2022-09-30T16:05:02.804Z,47.10
2022-09-30T16:07:32.109Z,44.16
2022-09-30T16:09:59.474Z,46.07
2022-09-30T16:12:33.899Z,48.69
2022-09-30T16:15:08.518Z,44.63
2022-09-30T16:17:39.573Z,41.79
2022-09-30T16:20:21.180Z,44.44
2022-09-30T16:22:48.134Z,47.24
2022-09-30T16:25:33.578Z,48.55
2022-09-30T16:28:12.317Z,48.35
2022-09-30T16:30:47.946Z,48.15
2022-09-30T16:33:16.004Z,49.11
2022-09-30T16:35:44.174Z,50.54
2022-09-30T16:38:13.762Z,52.57
2022-09-30T16:40:40.367Z,52.88
2022-09-30T16:43:07.872Z,53.06
2022-09-30T16:45:35.188Z,52.50
2022-09-30T16:48:02.394Z,54.43
2022-09-30T16:50:33.389Z,53.83
2022-09-30T16:52:59.750Z,53.66
2022-09-30T16:55:27.080Z,53.88
2022-09-30T16:57:57.109Z,52.29
2022-09-30T17:00:24.778Z,53.34
2022-09-30T17:02:51.279Z,52.77
2022-09-30T17:05:20.718Z,53.67
2022-09-30T17:07:50.870Z,54.42
2022-09-30T17:10:20.735Z,56.31
2022-09-30T17:12:47.901Z,55.20
2022-09-30T17:15:14.876Z,54.77
2022-09-30T17:17:41.226Z,53.22
2022-09-30T17:20:08.451Z,54.07
2022-09-30T17:22:34.841Z,53.98
2022-09-30T17:25:01.168Z,54.16
2022-09-30T17:27:27.502Z,53.30
2022-09-30T17:29:53.824Z,53.50
2022-09-30T17:32:20.166Z,53.64
2022-09-30T17:34:46.574Z,53.48
2022-09-30T17:37:15.765Z,55.35
2022-09-30T17:39:42.075Z,54.80
2022-09-30T17:42:34.251Z,55.99
2022-09-30T17:45:00.602Z,56.87
2022-09-30T17:47:27.231Z,56.88
2022-09-30T17:49:54.019Z,55.70
2022-09-30T17:52:21.087Z,55.78
2022-09-30T17:54:52.428Z,56.67
2022-09-30T17:57:20.552Z,56.59
2022-09-30T17:59:46.984Z,56.42
2022-09-30T18:02:15.732Z,56.74
2022-09-30T18:04:42.402Z,57.30
2022-09-30T18:07:10.159Z,56.57
2022-09-30T18:09:38.201Z,57.65
2022-09-30T18:12:07.201Z,55.84
2022-09-30T18:14:38.297Z,58.99
2022-09-30T18:17:06.095Z,57.20
2022-09-30T18:19:33.207Z,58.27
2022-09-30T18:21:59.526Z,58.36
2022-09-30T18:24:44.393Z,57.40
2022-09-30T18:27:11.055Z,58.24
2022-09-30T18:29:38.515Z,58.47
2022-09-30T18:32:05.719Z,57.91
2022-09-30T18:34:33.331Z,58.78
2022-09-30T18:37:03.973Z,58.34
2022-09-30T18:39:31.208Z,58.66
2022-09-30T18:41:57.587Z,59.22
2022-09-30T18:44:25.650Z,58.48
2022-09-30T18:46:53.010Z,59.70
2022-09-30T18:49:19.527Z,59.23
2022-09-30T18:51:45.931Z,59.26
2022-09-30T18:54:15.188Z,58.83
2022-09-30T18:56:43.931Z,59.64
2022-09-30T18:59:18.216Z,59.91
2022-09-30T19:01:47.995Z,60.44
2022-09-30T19:04:15.108Z,60.47
2022-09-30T19:06:47.529Z,60.93
2022-09-30T19:09:17.029Z,61.91
2022-09-30T19:11:44.735Z,61.69
2022-09-30T19:14:12.826Z,62.19
2022-09-30T19:16:40.512Z,62.18
2022-09-30T19:19:10.583Z,62.76
2022-09-30T19:21:38.594Z,62.91
2022-09-30T19:24:07.758Z,62.95
2022-09-30T19:26:36.503Z,63.13
2022-09-30T19:29:05.516Z,63.74
2022-09-30T19:31:33.979Z,64.24
2022-09-30T19:34:04.610Z,64.03
2022-09-30T19:36:44.177Z,64.34
2022-09-30T19:39:14.142Z,65.16
2022-09-30T19:41:40.481Z,64.98
2022-09-30T19:44:07.068Z,65.91
2022-09-30T19:46:33.518Z,65.06
2022-09-30T19:49:00.319Z,65.71
2022-09-30T19:51:29.439Z,66.29
2022-09-30T19:54:05.984Z,65.80
2022-09-30T19:56:35.676Z,65.44
2022-09-30T19:59:03.111Z,66.26
2022-09-30T20:01:30.960Z,66.22
2022-09-30T20:04:00.135Z,65.66
2022-09-30T20:06:28.062Z,66.33
2022-09-30T20:09:00.112Z,66.71
2022-09-30T20:11:29.708Z,66.52
2022-09-30T20:14:15.754Z,65.99
2022-09-30T20:16:43.681Z,66.78
2022-09-30T20:19:11.436Z,67.21
2022-09-30T20:21:38.766Z,67.15
2022-09-30T20:24:05.616Z,67.19
2022-09-30T20:26:32.637Z,67.77
2022-09-30T20:29:00.508Z,67.72
2022-09-30T20:31:27.499Z,66.81
2022-09-30T20:33:59.328Z,67.40
2022-09-30T20:36:28.210Z,66.31
2022-09-30T20:39:00.442Z,67.63
2022-09-30T20:41:28.184Z,66.98
2022-09-30T20:43:54.672Z,67.47
2022-09-30T20:46:22.953Z,67.29
2022-09-30T20:48:50.000Z,67.21
2022-09-30T20:51:19.181Z,67.50
2022-09-30T20:53:50.733Z,67.36
2022-09-30T20:56:19.653Z,67.68
2022-09-30T20:58:46.714Z,67.68
2022-09-30T21:01:14.720Z,67.94
2022-09-30T21:03:41.537Z,68.18
2022-09-30T21:06:12.589Z,68.79
2022-09-30T21:08:40.687Z,68.36
2022-09-30T21:11:08.076Z,68.47
2022-09-30T21:13:35.196Z,68.97
2022-09-30T21:16:03.972Z,69.06
2022-09-30T21:18:31.080Z,69.02
2022-09-30T21:20:59.071Z,68.92
2022-09-30T21:23:30.324Z,69.35
2022-09-30T21:26:14.623Z,69.62
2022-09-30T21:28:44.331Z,69.10
2022-09-30T21:31:24.034Z,69.04
2022-09-30T21:33:58.668Z,69.46
2022-09-30T21:36:26.849Z,68.82
2022-09-30T21:38:54.712Z,69.66
2022-09-30T21:41:21.075Z,69.84
2022-09-30T21:43:47.485Z,69.06
2022-09-30T21:46:15.653Z,68.86
2022-09-30T21:48:43.034Z,69.02
2022-09-30T21:51:09.935Z,69.43
2022-09-30T21:53:36.640Z,69.60
2022-09-30T21:56:03.722Z,69.95
2022-09-30T21:58:32.322Z,69.16
2022-09-30T22:01:02.197Z,68.70
2022-09-30T22:03:37.284Z,67.98
2022-09-30T22:06:07.957Z,68.38
2022-09-30T22:08:41.563Z,68.94
2022-09-30T22:11:24.754Z,69.19
2022-09-30T22:13:56.368Z,70.09
2022-09-30T22:16:27.054Z,69.46
2022-09-30T22:18:54.688Z,69.05
2022-09-30T22:21:21.522Z,69.20
2022-09-30T22:23:48.666Z,69.71
2022-09-30T22:26:18.045Z,68.84
2022-09-30T22:28:52.537Z,68.69
2022-09-30T22:31:24.891Z,69.16
2022-09-30T22:34:15.043Z,69.27
2022-09-30T22:37:00.295Z,69.43
2022-09-30T22:39:26.893Z,69.06
2022-09-30T22:41:55.356Z,68.39
2022-09-30T22:44:23.605Z,68.60
2022-09-30T22:46:50.634Z,69.60
2022-09-30T22:49:17.214Z,68.78
2022-09-30T22:51:43.545Z,67.39
2022-09-30T22:54:09.870Z,68.18
2022-09-30T22:56:36.223Z,66.92
2022-09-30T22:59:02.568Z,67.21
2022-09-30T23:01:29.633Z,68.65
2022-09-30T23:03:56.199Z,68.71
2022-09-30T23:06:24.292Z,68.36
2022-09-30T23:08:54.284Z,68.34
2022-09-30T23:11:23.082Z,68.11
2022-09-30T23:13:51.182Z,69.08
2022-09-30T23:16:19.096Z,68.72
2022-09-30T23:18:46.307Z,68.23
2022-09-30T23:21:18.330Z,68.69
2022-09-30T23:23:46.199Z,68.53
2022-09-30T23:26:15.338Z,69.48
2022-09-30T23:28:41.969Z,69.02
2022-09-30T23:31:16.487Z,69.69
2022-09-30T23:33:51.222Z,69.22
2022-09-30T23:36:20.363Z,69.25
2022-09-30T23:38:47.239Z,69.24
2022-09-30T23:41:14.010Z,68.77
2022-09-30T23:43:45.659Z,68.86
2022-09-30T23:46:12.446Z,68.95
2022-09-30T23:48:38.977Z,69.26
2022-09-30T23:51:05.938Z,68.58
2022-09-30T23:53:33.645Z,68.71
2022-09-30T23:56:05.822Z,68.83
2022-09-30T23:58:33.841Z,68.26
